Search METAR Data

METAR Data for DTTF:

DTTF 241600Z 34009KT 310V010 8000 SCT026 19/M04 Q1013 NOSIG